sensor_id;sensor_type;location;lat;lon;timestamp;temperature;humidity
13806;DHT22;6974;53.606;9.872;2022-08-11T00:00:32;20.40;99.90
13806;DHT22;6974;53.606;9.872;2022-08-11T00:03:04;20.40;99.90
13806;DHT22;6974;53.606;9.872;2022-08-11T00:05:32;20.30;99.90
13806;DHT22;6974;53.606;9.872;2022-08-11T00:08:00;20.30;99.90
13806;DHT22;6974;53.606;9.872;2022-08-11T00:10:28;20.30;99.90
13806;DHT22;6974;53.606;9.872;2022-08-11T00:13:01;20.30;99.90
13806;DHT22;6974;53.606;9.872;2022-08-11T00:15:40;20.20;99.90
13806;DHT22;6974;53.606;9.872;2022-08-11T00:18:08;20.20;99.90
13806;DHT22;6974;53.606;9.872;2022-08-11T00:20:39;20.10;99.90
13806;DHT22;6974;53.606;9.872;2022-08-11T00:23:09;20.10;99.90
13806;DHT22;6974;53.606;9.872;2022-08-11T00:25:40;20.10;99.90
13806;DHT22;6974;53.606;9.872;2022-08-11T00:28:24;20.00;99.90
13806;DHT22;6974;53.606;9.872;2022-08-11T00:30:52;20.00;99.90
13806;DHT22;6974;53.606;9.872;2022-08-11T00:33:22;20.00;99.90
13806;DHT22;6974;53.606;9.872;2022-08-11T00:35:49;20.00;99.90
13806;DHT22;6974;53.606;9.872;2022-08-11T00:38:17;20.00;99.90
13806;DHT22;6974;53.606;9.872;2022-08-11T00:40:54;19.90;99.90
13806;DHT22;6974;53.606;9.872;2022-08-11T00:43:40;19.90;99.90
13806;DHT22;6974;53.606;9.872;2022-08-11T00:46:21;19.90;99.90
13806;DHT22;6974;53.606;9.872;2022-08-11T00:49:12;19.80;99.90
13806;DHT22;6974;53.606;9.872;2022-08-11T00:52:07;19.70;99.90
13806;DHT22;6974;53.606;9.872;2022-08-11T01:01:16;19.70;99.90
13806;DHT22;6974;53.606;9.872;2022-08-11T01:04:06;19.60;99.90
13806;DHT22;6974;53.606;9.872;2022-08-11T01:06:48;19.50;99.90
13806;DHT22;6974;53.606;9.872;2022-08-11T01:09:32;19.50;99.90
13806;DHT22;6974;53.606;9.872;2022-08-11T01:15:39;19.50;99.90
13806;DHT22;6974;53.606;9.872;2022-08-11T01:40:34;19.20;99.90
13806;DHT22;6974;53.606;9.872;2022-08-11T01:43:32;19.10;99.90
13806;DHT22;6974;53.606;9.872;2022-08-11T01:46:29;19.10;99.90
13806;DHT22;6974;53.606;9.872;2022-08-11T01:49:11;19.10;99.90
13806;DHT22;6974;53.606;9.872;2022-08-11T01:51:54;19.10;99.90
13806;DHT22;6974;53.606;9.872;2022-08-11T01:54:31;19.00;99.90
13806;DHT22;6974;53.606;9.872;2022-08-11T01:57:15;19.00;99.90
13806;DHT22;6974;53.606;9.872;2022-08-11T01:59:47;19.00;99.90
13806;DHT22;6974;53.606;9.872;2022-08-11T02:02:30;19.00;99.90
13806;DHT22;6974;53.606;9.872;2022-08-11T02:05:42;18.90;99.90
13806;DHT22;6974;53.606;9.872;2022-08-11T02:08:20;18.90;99.90
13806;DHT22;6974;53.606;9.872;2022-08-11T02:10:55;18.90;99.90
13806;DHT22;6974;53.606;9.872;2022-08-11T02:13:56;18.90;99.90
13806;DHT22;6974;53.606;9.872;2022-08-11T02:16:37;19.00;99.90
13806;DHT22;6974;53.606;9.872;2022-08-11T02:19:13;19.00;99.90
13806;DHT22;6974;53.606;9.872;2022-08-11T02:22:08;18.90;99.90
13806;DHT22;6974;53.606;9.872;2022-08-11T02:25:01;18.90;99.90
13806;DHT22;6974;53.606;9.872;2022-08-11T02:27:35;18.90;99.90
13806;DHT22;6974;53.606;9.872;2022-08-11T02:30:09;18.90;99.90
13806;DHT22;6974;53.606;9.872;2022-08-11T02:32:46;18.90;99.90
13806;DHT22;6974;53.606;9.872;2022-08-11T02:35:37;18.90;99.90
13806;DHT22;6974;53.606;9.872;2022-08-11T02:38:24;18.80;99.90
13806;DHT22;6974;53.606;9.872;2022-08-11T02:41:00;18.80;99.90
13806;DHT22;6974;53.606;9.872;2022-08-11T02:43:38;18.70;99.90
13806;DHT22;6974;53.606;9.872;2022-08-11T02:46:19;18.70;99.90
13806;DHT22;6974;53.606;9.872;2022-08-11T02:48:58;18.70;99.90
13806;DHT22;6974;53.606;9.872;2022-08-11T02:52:04;18.70;99.90
13806;DHT22;6974;53.606;9.872;2022-08-11T02:54:36;18.70;99.90
13806;DHT22;6974;53.606;9.872;2022-08-11T02:57:09;18.60;99.90
13806;DHT22;6974;53.606;9.872;2022-08-11T02:59:46;18.60;99.90
13806;DHT22;6974;53.606;9.872;2022-08-11T03:02:34;18.60;99.90
13806;DHT22;6974;53.606;9.872;2022-08-11T03:05:14;18.60;99.90
13806;DHT22;6974;53.606;9.872;2022-08-11T03:07:57;18.60;99.90
13806;DHT22;6974;53.606;9.872;2022-08-11T03:10:33;18.50;99.90
13806;DHT22;6974;53.606;9.872;2022-08-11T03:13:10;18.60;99.90
13806;DHT22;6974;53.606;9.872;2022-08-11T03:16:17;18.50;99.90
13806;DHT22;6974;53.606;9.872;2022-08-11T03:19:15;18.50;99.90
13806;DHT22;6974;53.606;9.872;2022-08-11T03:21:48;18.50;99.90
13806;DHT22;6974;53.606;9.872;2022-08-11T03:24:23;18.40;99.90
13806;DHT22;6974;53.606;9.872;2022-08-11T03:27:01;18.40;99.90
13806;DHT22;6974;53.606;9.872;2022-08-11T03:29:34;18.30;99.90
13806;DHT22;6974;53.606;9.872;2022-08-11T03:32:10;18.30;99.90
13806;DHT22;6974;53.606;9.872;2022-08-11T03:34:43;18.30;99.90
13806;DHT22;6974;53.606;9.872;2022-08-11T03:37:27;18.30;99.90
13806;DHT22;6974;53.606;9.872;2022-08-11T03:40:27;18.20;99.90
13806;DHT22;6974;53.606;9.872;2022-08-11T03:43:23;18.20;99.90
13806;DHT22;6974;53.606;9.872;2022-08-11T03:46:03;18.10;99.90
13806;DHT22;6974;53.606;9.872;2022-08-11T03:48:41;18.10;99.90
13806;DHT22;6974;53.606;9.872;2022-08-11T03:51:18;18.10;99.90
13806;DHT22;6974;53.606;9.872;2022-08-11T03:53:59;18.10;99.90
13806;DHT22;6974;53.606;9.872;2022-08-11T03:56:58;18.10;99.90
13806;DHT22;6974;53.606;9.872;2022-08-11T04:06:20;18.00;99.90
13806;DHT22;6974;53.606;9.872;2022-08-11T04:09:05;18.00;99.90
13806;DHT22;6974;53.606;9.872;2022-08-11T04:14:46;17.90;99.90
13806;DHT22;6974;53.606;9.872;2022-08-11T04:20:48;17.90;99.90
13806;DHT22;6974;53.606;9.872;2022-08-11T04:23:41;17.80;99.90
13806;DHT22;6974;53.606;9.872;2022-08-11T04:29:53;17.80;99.90
13806;DHT22;6974;53.606;9.872;2022-08-11T04:32:35;17.80;99.90
13806;DHT22;6974;53.606;9.872;2022-08-11T04:38:30;17.80;99.90
13806;DHT22;6974;53.606;9.872;2022-08-11T04:41:52;17.80;99.90
13806;DHT22;6974;53.606;9.872;2022-08-11T04:45:04;17.80;99.90
13806;DHT22;6974;53.606;9.872;2022-08-11T04:47:50;17.80;99.90
13806;DHT22;6974;53.606;9.872;2022-08-11T04:51:08;17.90;99.90
13806;DHT22;6974;53.606;9.872;2022-08-11T04:54:02;17.90;99.90
13806;DHT22;6974;53.606;9.872;2022-08-11T04:56:57;17.90;99.90
13806;DHT22;6974;53.606;9.872;2022-08-11T05:00:06;17.90;99.90
13806;DHT22;6974;53.606;9.872;2022-08-11T05:03:16;17.90;99.90
13806;DHT22;6974;53.606;9.872;2022-08-11T05:06:03;17.90;99.90
13806;DHT22;6974;53.606;9.872;2022-08-11T05:11:57;18.00;99.90
13806;DHT22;6974;53.606;9.872;2022-08-11T05:14:32;18.10;99.90
13806;DHT22;6974;53.606;9.872;2022-08-11T05:17:26;18.10;99.90
13806;DHT22;6974;53.606;9.872;2022-08-11T05:20:15;18.20;99.90
13806;DHT22;6974;53.606;9.872;2022-08-11T05:23:04;18.20;99.90
13806;DHT22;6974;53.606;9.872;2022-08-11T05:25:54;18.30;99.90
13806;DHT22;6974;53.606;9.872;2022-08-11T05:28:47;18.40;99.90
13806;DHT22;6974;53.606;9.872;2022-08-11T05:31:36;18.50;99.90
13806;DHT22;6974;53.606;9.872;2022-08-11T05:34:24;18.50;99.90
13806;DHT22;6974;53.606;9.872;2022-08-11T05:37:11;18.60;99.90
13806;DHT22;6974;53.606;9.872;2022-08-11T05:39:44;18.70;99.90
13806;DHT22;6974;53.606;9.872;2022-08-11T05:42:31;18.80;99.90
13806;DHT22;6974;53.606;9.872;2022-08-11T05:45:18;19.00;99.90
13806;DHT22;6974;53.606;9.872;2022-08-11T05:48:03;19.10;99.90
13806;DHT22;6974;53.606;9.872;2022-08-11T05:50:52;19.20;99.90
13806;DHT22;6974;53.606;9.872;2022-08-11T05:53:48;19.20;99.90
13806;DHT22;6974;53.606;9.872;2022-08-11T05:56:34;19.30;99.90
13806;DHT22;6974;53.606;9.872;2022-08-11T05:59:12;19.40;99.90
13806;DHT22;6974;53.606;9.872;2022-08-11T06:01:42;19.40;99.90
13806;DHT22;6974;53.606;9.872;2022-08-11T06:04:17;19.50;99.90
13806;DHT22;6974;53.606;9.872;2022-08-11T06:06:56;19.60;99.90
13806;DHT22;6974;53.606;9.872;2022-08-11T06:09:26;19.60;99.90
13806;DHT22;6974;53.606;9.872;2022-08-11T06:11:59;19.70;99.90
13806;DHT22;6974;53.606;9.872;2022-08-11T06:14:27;19.70;99.90
13806;DHT22;6974;53.606;9.872;2022-08-11T06:16:57;19.80;99.90
13806;DHT22;6974;53.606;9.872;2022-08-11T06:19:37;19.80;99.90
13806;DHT22;6974;53.606;9.872;2022-08-11T06:22:07;19.90;99.90
13806;DHT22;6974;53.606;9.872;2022-08-11T06:24:36;20.00;99.90
13806;DHT22;6974;53.606;9.872;2022-08-11T06:27:05;20.00;99.90
13806;DHT22;6974;53.606;9.872;2022-08-11T06:29:35;20.10;99.90
13806;DHT22;6974;53.606;9.872;2022-08-11T06:32:12;20.10;99.90
13806;DHT22;6974;53.606;9.872;2022-08-11T06:34:53;20.20;99.90
13806;DHT22;6974;53.606;9.872;2022-08-11T06:37:24;20.30;99.90
13806;DHT22;6974;53.606;9.872;2022-08-11T06:40:03;20.30;99.90
13806;DHT22;6974;53.606;9.872;2022-08-11T06:42:50;20.40;99.90
13806;DHT22;6974;53.606;9.872;2022-08-11T06:45:32;20.50;99.90
13806;DHT22;6974;53.606;9.872;2022-08-11T06:48:05;20.60;99.90
13806;DHT22;6974;53.606;9.872;2022-08-11T06:50:35;20.60;99.90
13806;DHT22;6974;53.606;9.872;2022-08-11T06:53:20;20.70;99.90
13806;DHT22;6974;53.606;9.872;2022-08-11T06:55:48;20.80;99.90
13806;DHT22;6974;53.606;9.872;2022-08-11T06:58:36;20.80;99.90
13806;DHT22;6974;53.606;9.872;2022-08-11T07:01:32;20.90;99.90
13806;DHT22;6974;53.606;9.872;2022-08-11T07:04:08;21.00;99.90
13806;DHT22;6974;53.606;9.872;2022-08-11T07:06:44;21.00;99.90
13806;DHT22;6974;53.606;9.872;2022-08-11T07:12:44;21.10;99.90
13806;DHT22;6974;53.606;9.872;2022-08-11T07:15:34;21.20;99.90
13806;DHT22;6974;53.606;9.872;2022-08-11T07:18:13;21.30;99.90
13806;DHT22;6974;53.606;9.872;2022-08-11T07:21:10;21.30;99.90
13806;DHT22;6974;53.606;9.872;2022-08-11T07:23:57;21.40;99.90
13806;DHT22;6974;53.606;9.872;2022-08-11T07:26:50;21.40;99.90
13806;DHT22;6974;53.606;9.872;2022-08-11T07:29:36;21.50;99.90
13806;DHT22;6974;53.606;9.872;2022-08-11T07:32:23;21.60;99.90
13806;DHT22;6974;53.606;9.872;2022-08-11T07:34:56;21.70;99.90
13806;DHT22;6974;53.606;9.872;2022-08-11T07:37:29;21.70;99.90
13806;DHT22;6974;53.606;9.872;2022-08-11T07:40:01;21.80;99.90
13806;DHT22;6974;53.606;9.872;2022-08-11T07:42:31;21.80;99.90
13806;DHT22;6974;53.606;9.872;2022-08-11T07:45:04;21.90;99.90
13806;DHT22;6974;53.606;9.872;2022-08-11T07:47:49;22.00;99.90
13806;DHT22;6974;53.606;9.872;2022-08-11T07:50:39;22.10;99.90
13806;DHT22;6974;53.606;9.872;2022-08-11T07:53:28;22.20;99.90
13806;DHT22;6974;53.606;9.872;2022-08-11T07:55:58;22.20;99.90
13806;DHT22;6974;53.606;9.872;2022-08-11T07:58:26;22.30;99.90
13806;DHT22;6974;53.606;9.872;2022-08-11T08:01:17;22.40;99.90
13806;DHT22;6974;53.606;9.872;2022-08-11T08:04:04;22.50;99.90
13806;DHT22;6974;53.606;9.872;2022-08-11T08:06:50;22.60;99.90
13806;DHT22;6974;53.606;9.872;2022-08-11T08:09:36;22.60;99.90
13806;DHT22;6974;53.606;9.872;2022-08-11T08:12:22;22.60;99.90
13806;DHT22;6974;53.606;9.872;2022-08-11T08:15:09;22.70;99.90
13806;DHT22;6974;53.606;9.872;2022-08-11T08:17:54;22.90;99.90
13806;DHT22;6974;53.606;9.872;2022-08-11T08:20:26;22.90;99.90
13806;DHT22;6974;53.606;9.872;2022-08-11T08:22:55;23.00;99.90
13806;DHT22;6974;53.606;9.872;2022-08-11T08:25:25;23.00;99.90
13806;DHT22;6974;53.606;9.872;2022-08-11T08:27:53;23.20;99.90
13806;DHT22;6974;53.606;9.872;2022-08-11T08:30:21;23.20;99.90
13806;DHT22;6974;53.606;9.872;2022-08-11T08:33:07;23.30;99.90
13806;DHT22;6974;53.606;9.872;2022-08-11T08:35:35;23.40;99.90
13806;DHT22;6974;53.606;9.872;2022-08-11T08:38:03;23.50;99.90
13806;DHT22;6974;53.606;9.872;2022-08-11T08:40:33;23.70;99.90
13806;DHT22;6974;53.606;9.872;2022-08-11T08:43:04;23.80;99.90
13806;DHT22;6974;53.606;9.872;2022-08-11T08:45:33;23.90;99.90
13806;DHT22;6974;53.606;9.872;2022-08-11T08:48:02;24.00;99.90
13806;DHT22;6974;53.606;9.872;2022-08-11T08:50:33;24.10;99.90
13806;DHT22;6974;53.606;9.872;2022-08-11T08:53:22;24.20;99.90
13806;DHT22;6974;53.606;9.872;2022-08-11T08:55:51;24.40;99.90
13806;DHT22;6974;53.606;9.872;2022-08-11T08:58:23;24.50;99.90
13806;DHT22;6974;53.606;9.872;2022-08-11T09:00:52;24.60;99.90
13806;DHT22;6974;53.606;9.872;2022-08-11T09:03:21;24.80;99.90
13806;DHT22;6974;53.606;9.872;2022-08-11T09:05:53;24.90;99.90
13806;DHT22;6974;53.606;9.872;2022-08-11T09:08:21;25.10;99.90
13806;DHT22;6974;53.606;9.872;2022-08-11T09:10:51;25.20;99.90
13806;DHT22;6974;53.606;9.872;2022-08-11T09:13:32;25.40;99.90
13806;DHT22;6974;53.606;9.872;2022-08-11T09:16:00;25.60;99.90
13806;DHT22;6974;53.606;9.872;2022-08-11T09:18:28;25.70;99.90
13806;DHT22;6974;53.606;9.872;2022-08-11T09:20:56;25.80;99.90
13806;DHT22;6974;53.606;9.872;2022-08-11T09:23:24;26.00;99.90
13806;DHT22;6974;53.606;9.872;2022-08-11T09:26:16;26.10;99.90
13806;DHT22;6974;53.606;9.872;2022-08-11T09:29:01;26.30;99.90
13806;DHT22;6974;53.606;9.872;2022-08-11T09:31:30;26.40;99.90
13806;DHT22;6974;53.606;9.872;2022-08-11T09:33:59;26.50;99.90
13806;DHT22;6974;53.606;9.872;2022-08-11T09:36:27;26.60;99.90
13806;DHT22;6974;53.606;9.872;2022-08-11T09:39:12;26.80;99.90
13806;DHT22;6974;53.606;9.872;2022-08-11T09:42:02;26.90;99.90
13806;DHT22;6974;53.606;9.872;2022-08-11T09:44:31;27.00;99.90
13806;DHT22;6974;53.606;9.872;2022-08-11T09:47:17;27.10;99.90
13806;DHT22;6974;53.606;9.872;2022-08-11T09:49:45;27.10;99.90
13806;DHT22;6974;53.606;9.872;2022-08-11T09:52:15;27.20;99.90
13806;DHT22;6974;53.606;9.872;2022-08-11T09:54:47;27.30;99.90
13806;DHT22;6974;53.606;9.872;2022-08-11T09:57:18;27.50;99.90
13806;DHT22;6974;53.606;9.872;2022-08-11T10:00:06;27.70;99.90
13806;DHT22;6974;53.606;9.872;2022-08-11T10:02:34;27.80;99.90
13806;DHT22;6974;53.606;9.872;2022-08-11T10:05:06;28.00;99.90
13806;DHT22;6974;53.606;9.872;2022-08-11T10:07:52;28.10;99.90
13806;DHT22;6974;53.606;9.872;2022-08-11T10:10:20;28.20;99.90
13806;DHT22;6974;53.606;9.872;2022-08-11T10:12:55;28.30;99.90
13806;DHT22;6974;53.606;9.872;2022-08-11T10:15:25;28.50;99.90
13806;DHT22;6974;53.606;9.872;2022-08-11T10:18:04;28.60;99.90
13806;DHT22;6974;53.606;9.872;2022-08-11T10:20:52;28.70;99.90
13806;DHT22;6974;53.606;9.872;2022-08-11T10:23:21;28.80;99.90
13806;DHT22;6974;53.606;9.872;2022-08-11T10:26:06;28.80;99.90
13806;DHT22;6974;53.606;9.872;2022-08-11T10:28:52;28.80;99.90
13806;DHT22;6974;53.606;9.872;2022-08-11T10:31:21;28.90;99.90
13806;DHT22;6974;53.606;9.872;2022-08-11T10:34:07;28.90;99.90
13806;DHT22;6974;53.606;9.872;2022-08-11T10:36:36;28.90;99.90
13806;DHT22;6974;53.606;9.872;2022-08-11T10:39:09;29.00;99.90
13806;DHT22;6974;53.606;9.872;2022-08-11T10:41:40;29.20;99.90
13806;DHT22;6974;53.606;9.872;2022-08-11T10:44:26;29.30;99.90
13806;DHT22;6974;53.606;9.872;2022-08-11T10:46:54;29.50;99.90
13806;DHT22;6974;53.606;9.872;2022-08-11T10:49:39;29.60;99.90
13806;DHT22;6974;53.606;9.872;2022-08-11T10:52:06;29.70;99.90
13806;DHT22;6974;53.606;9.872;2022-08-11T10:54:50;29.70;99.90
13806;DHT22;6974;53.606;9.872;2022-08-11T10:57:36;29.60;99.90
13806;DHT22;6974;53.606;9.872;2022-08-11T11:00:22;29.50;99.90
13806;DHT22;6974;53.606;9.872;2022-08-11T11:02:50;29.40;99.90
13806;DHT22;6974;53.606;9.872;2022-08-11T11:05:22;29.40;99.90
13806;DHT22;6974;53.606;9.872;2022-08-11T11:07:55;29.40;99.90
13806;DHT22;6974;53.606;9.872;2022-08-11T11:10:25;29.40;99.90
13806;DHT22;6974;53.606;9.872;2022-08-11T11:12:54;29.40;99.90
13806;DHT22;6974;53.606;9.872;2022-08-11T11:15:43;29.40;99.90
13806;DHT22;6974;53.606;9.872;2022-08-11T11:18:32;29.40;99.90
13806;DHT22;6974;53.606;9.872;2022-08-11T11:21:04;29.50;99.90
13806;DHT22;6974;53.606;9.872;2022-08-11T11:23:37;29.50;99.90
13806;DHT22;6974;53.606;9.872;2022-08-11T11:26:24;29.50;99.90
13806;DHT22;6974;53.606;9.872;2022-08-11T11:32:18;29.50;99.90
13806;DHT22;6974;53.606;9.872;2022-08-11T11:35:10;29.60;99.90
13806;DHT22;6974;53.606;9.872;2022-08-11T11:37:40;29.60;99.90
13806;DHT22;6974;53.606;9.872;2022-08-11T11:40:09;29.70;99.90
13806;DHT22;6974;53.606;9.872;2022-08-11T11:42:38;29.70;99.90
13806;DHT22;6974;53.606;9.872;2022-08-11T11:45:07;29.70;99.90
13806;DHT22;6974;53.606;9.872;2022-08-11T11:47:36;29.60;99.90
13806;DHT22;6974;53.606;9.872;2022-08-11T11:50:05;29.70;99.70
13806;DHT22;6974;53.606;9.872;2022-08-11T11:52:33;29.60;99.90
13806;DHT22;6974;53.606;9.872;2022-08-11T11:55:01;29.70;99.90
13806;DHT22;6974;53.606;9.872;2022-08-11T11:57:29;29.70;99.30
13806;DHT22;6974;53.606;9.872;2022-08-11T12:00:14;29.80;99.40
13806;DHT22;6974;53.606;9.872;2022-08-11T12:03:02;29.80;99.60
13806;DHT22;6974;53.606;9.872;2022-08-11T12:05:33;29.80;98.80
13806;DHT22;6974;53.606;9.872;2022-08-11T12:08:01;29.70;98.90
13806;DHT22;6974;53.606;9.872;2022-08-11T12:10:40;29.80;98.60
13806;DHT22;6974;53.606;9.872;2022-08-11T12:13:09;29.80;98.50
13806;DHT22;6974;53.606;9.872;2022-08-11T12:15:54;29.80;98.20
13806;DHT22;6974;53.606;9.872;2022-08-11T12:18:22;29.90;98.00
13806;DHT22;6974;53.606;9.872;2022-08-11T12:20:49;29.90;98.50
13806;DHT22;6974;53.606;9.872;2022-08-11T12:23:16;29.80;97.20
13806;DHT22;6974;53.606;9.872;2022-08-11T12:26:01;29.70;96.90
13806;DHT22;6974;53.606;9.872;2022-08-11T12:28:46;29.70;96.90
13806;DHT22;6974;53.606;9.872;2022-08-11T12:31:13;29.60;96.70
13806;DHT22;6974;53.606;9.872;2022-08-11T12:33:41;29.50;95.80
13806;DHT22;6974;53.606;9.872;2022-08-11T12:36:09;29.50;95.50
13806;DHT22;6974;53.606;9.872;2022-08-11T12:38:42;29.50;96.60
13806;DHT22;6974;53.606;9.872;2022-08-11T12:41:10;29.50;97.40
13806;DHT22;6974;53.606;9.872;2022-08-11T12:43:56;29.40;96.90
13806;DHT22;6974;53.606;9.872;2022-08-11T12:46:45;29.40;96.80
13806;DHT22;6974;53.606;9.872;2022-08-11T12:49:18;29.40;96.50
13806;DHT22;6974;53.606;9.872;2022-08-11T12:52:08;29.50;96.20
13806;DHT22;6974;53.606;9.872;2022-08-11T12:54:45;29.40;96.30
13806;DHT22;6974;53.606;9.872;2022-08-11T12:57:18;29.30;97.20
13806;DHT22;6974;53.606;9.872;2022-08-11T13:00:04;29.30;97.30
13806;DHT22;6974;53.606;9.872;2022-08-11T13:02:50;29.30;96.60
13806;DHT22;6974;53.606;9.872;2022-08-11T13:05:36;29.30;96.30
13806;DHT22;6974;53.606;9.872;2022-08-11T13:08:04;29.30;97.40
13806;DHT22;6974;53.606;9.872;2022-08-11T13:10:32;29.40;97.30
13806;DHT22;6974;53.606;9.872;2022-08-11T13:13:14;29.40;96.90
13806;DHT22;6974;53.606;9.872;2022-08-11T13:15:41;29.40;96.80
13806;DHT22;6974;53.606;9.872;2022-08-11T13:18:10;29.50;96.50
13806;DHT22;6974;53.606;9.872;2022-08-11T13:20:42;29.70;96.80
13806;DHT22;6974;53.606;9.872;2022-08-11T13:23:10;29.70;95.40
13806;DHT22;6974;53.606;9.872;2022-08-11T13:25:38;29.80;95.10
13806;DHT22;6974;53.606;9.872;2022-08-11T13:28:06;29.80;94.30
13806;DHT22;6974;53.606;9.872;2022-08-11T13:30:34;29.90;93.70
13806;DHT22;6974;53.606;9.872;2022-08-11T13:33:19;29.90;93.60
13806;DHT22;6974;53.606;9.872;2022-08-11T13:35:49;30.00;94.10
13806;DHT22;6974;53.606;9.872;2022-08-11T13:38:19;29.90;93.80
13806;DHT22;6974;53.606;9.872;2022-08-11T13:40:47;30.00;93.50
13806;DHT22;6974;53.606;9.872;2022-08-11T13:43:15;30.00;93.60
13806;DHT22;6974;53.606;9.872;2022-08-11T13:45:45;30.10;93.40
13806;DHT22;6974;53.606;9.872;2022-08-11T13:48:13;30.10;93.00
13806;DHT22;6974;53.606;9.872;2022-08-11T13:50:41;30.20;92.90
13806;DHT22;6974;53.606;9.872;2022-08-11T13:53:29;30.30;92.90
13806;DHT22;6974;53.606;9.872;2022-08-11T13:55:58;30.30;92.40
13806;DHT22;6974;53.606;9.872;2022-08-11T13:58:26;30.30;92.60
13806;DHT22;6974;53.606;9.872;2022-08-11T14:00:54;30.40;92.80
13806;DHT22;6974;53.606;9.872;2022-08-11T14:03:24;30.40;92.50
13806;DHT22;6974;53.606;9.872;2022-08-11T14:05:53;30.40;92.00
13806;DHT22;6974;53.606;9.872;2022-08-11T14:08:25;30.40;92.70
13806;DHT22;6974;53.606;9.872;2022-08-11T14:10:55;30.40;92.30
13806;DHT22;6974;53.606;9.872;2022-08-11T14:13:44;30.40;92.00
13806;DHT22;6974;53.606;9.872;2022-08-11T14:16:21;30.40;91.90
13806;DHT22;6974;53.606;9.872;2022-08-11T14:18:53;30.50;92.00
13806;DHT22;6974;53.606;9.872;2022-08-11T14:21:23;30.50;92.40
13806;DHT22;6974;53.606;9.872;2022-08-11T14:24:08;30.70;92.10
13806;DHT22;6974;53.606;9.872;2022-08-11T14:26:38;30.70;92.70
13806;DHT22;6974;53.606;9.872;2022-08-11T14:29:10;30.80;92.00
13806;DHT22;6974;53.606;9.872;2022-08-11T14:31:43;30.90;91.90
13806;DHT22;6974;53.606;9.872;2022-08-11T14:34:13;31.00;92.30
13806;DHT22;6974;53.606;9.872;2022-08-11T14:36:42;31.00;91.20
13806;DHT22;6974;53.606;9.872;2022-08-11T14:39:13;31.10;91.90
13806;DHT22;6974;53.606;9.872;2022-08-11T14:41:45;31.20;90.30
13806;DHT22;6974;53.606;9.872;2022-08-11T14:44:31;31.20;89.80
13806;DHT22;6974;53.606;9.872;2022-08-11T14:47:16;31.20;89.40
13806;DHT22;6974;53.606;9.872;2022-08-11T14:49:45;31.30;89.10
13806;DHT22;6974;53.606;9.872;2022-08-11T14:52:14;31.30;88.90
13806;DHT22;6974;53.606;9.872;2022-08-11T14:54:43;31.30;89.30
13806;DHT22;6974;53.606;9.872;2022-08-11T14:57:31;31.30;89.10
13806;DHT22;6974;53.606;9.872;2022-08-11T15:00:02;31.40;89.50
13806;DHT22;6974;53.606;9.872;2022-08-11T15:02:33;31.50;90.10
13806;DHT22;6974;53.606;9.872;2022-08-11T15:05:19;31.60;87.90
13806;DHT22;6974;53.606;9.872;2022-08-11T15:07:46;31.60;88.00
13806;DHT22;6974;53.606;9.872;2022-08-11T15:10:16;31.50;87.50
13806;DHT22;6974;53.606;9.872;2022-08-11T15:12:45;31.40;86.50
13806;DHT22;6974;53.606;9.872;2022-08-11T15:15:13;31.40;85.60
13806;DHT22;6974;53.606;9.872;2022-08-11T15:18:02;31.40;87.20
13806;DHT22;6974;53.606;9.872;2022-08-11T15:20:31;31.40;87.60
13806;DHT22;6974;53.606;9.872;2022-08-11T15:23:15;31.40;85.70
13806;DHT22;6974;53.606;9.872;2022-08-11T15:26:03;31.40;85.70
13806;DHT22;6974;53.606;9.872;2022-08-11T15:28:38;31.50;83.90
13806;DHT22;6974;53.606;9.872;2022-08-11T15:31:24;31.50;86.30
13806;DHT22;6974;53.606;9.872;2022-08-11T15:34:12;31.60;84.50
13806;DHT22;6974;53.606;9.872;2022-08-11T15:37:01;31.60;83.60
13806;DHT22;6974;53.606;9.872;2022-08-11T15:39:48;31.60;83.90
13806;DHT22;6974;53.606;9.872;2022-08-11T15:42:33;31.70;83.60
13806;DHT22;6974;53.606;9.872;2022-08-11T15:45:24;31.60;84.30
13806;DHT22;6974;53.606;9.872;2022-08-11T15:48:11;31.50;84.50
13806;DHT22;6974;53.606;9.872;2022-08-11T15:50:44;31.40;86.00
13806;DHT22;6974;53.606;9.872;2022-08-11T15:53:17;31.40;87.70
13806;DHT22;6974;53.606;9.872;2022-08-11T15:55:46;31.40;88.00
13806;DHT22;6974;53.606;9.872;2022-08-11T15:58:14;31.30;87.80
13806;DHT22;6974;53.606;9.872;2022-08-11T16:01:00;31.30;87.20
13806;DHT22;6974;53.606;9.872;2022-08-11T16:03:50;31.20;89.10
13806;DHT22;6974;53.606;9.872;2022-08-11T16:06:48;31.20;90.00
13806;DHT22;6974;53.606;9.872;2022-08-11T16:09:19;31.10;90.40
13806;DHT22;6974;53.606;9.872;2022-08-11T16:11:48;31.00;90.60
13806;DHT22;6974;53.606;9.872;2022-08-11T16:14:16;30.90;91.30
13806;DHT22;6974;53.606;9.872;2022-08-11T16:17:05;30.80;91.20
13806;DHT22;6974;53.606;9.872;2022-08-11T16:19:34;30.60;90.90
13806;DHT22;6974;53.606;9.872;2022-08-11T16:22:07;30.50;91.30
13806;DHT22;6974;53.606;9.872;2022-08-11T16:24:37;30.40;92.10
13806;DHT22;6974;53.606;9.872;2022-08-11T16:27:05;30.30;91.70
13806;DHT22;6974;53.606;9.872;2022-08-11T16:29:35;30.20;92.20
13806;DHT22;6974;53.606;9.872;2022-08-11T16:32:05;30.00;92.20
13806;DHT22;6974;53.606;9.872;2022-08-11T16:34:49;29.90;92.40
13806;DHT22;6974;53.606;9.872;2022-08-11T16:37:35;29.90;92.40
13806;DHT22;6974;53.606;9.872;2022-08-11T16:40:21;29.80;92.90
13806;DHT22;6974;53.606;9.872;2022-08-11T16:42:49;29.80;92.70
13806;DHT22;6974;53.606;9.872;2022-08-11T16:45:36;29.90;92.70
13806;DHT22;6974;53.606;9.872;2022-08-11T16:48:25;29.80;92.80
13806;DHT22;6974;53.606;9.872;2022-08-11T16:50:54;29.70;92.50
13806;DHT22;6974;53.606;9.872;2022-08-11T16:53:24;29.70;92.80
13806;DHT22;6974;53.606;9.872;2022-08-11T16:55:52;29.60;92.70
13806;DHT22;6974;53.606;9.872;2022-08-11T16:58:21;29.60;92.90
13806;DHT22;6974;53.606;9.872;2022-08-11T17:01:08;29.50;93.20
13806;DHT22;6974;53.606;9.872;2022-08-11T17:03:42;29.50;93.20
13806;DHT22;6974;53.606;9.872;2022-08-11T17:06:27;29.60;93.20
13806;DHT22;6974;53.606;9.872;2022-08-11T17:09:15;29.60;92.80
13806;DHT22;6974;53.606;9.872;2022-08-11T17:12:02;29.60;93.20
13806;DHT22;6974;53.606;9.872;2022-08-11T17:14:51;29.60;92.80
13806;DHT22;6974;53.606;9.872;2022-08-11T17:17:24;29.60;93.10
13806;DHT22;6974;53.606;9.872;2022-08-11T17:19:57;29.60;93.00
13806;DHT22;6974;53.606;9.872;2022-08-11T17:22:25;29.50;93.20
13806;DHT22;6974;53.606;9.872;2022-08-11T17:25:12;29.40;93.20
13806;DHT22;6974;53.606;9.872;2022-08-11T17:27:39;29.40;93.30
13806;DHT22;6974;53.606;9.872;2022-08-11T17:30:09;29.30;93.30
13806;DHT22;6974;53.606;9.872;2022-08-11T17:32:38;29.20;94.00
13806;DHT22;6974;53.606;9.872;2022-08-11T17:35:26;29.00;93.70
13806;DHT22;6974;53.606;9.872;2022-08-11T17:37:59;28.90;93.60
13806;DHT22;6974;53.606;9.872;2022-08-11T17:40:27;28.80;94.20
13806;DHT22;6974;53.606;9.872;2022-08-11T17:42:56;28.70;94.30
13806;DHT22;6974;53.606;9.872;2022-08-11T17:45:42;28.60;93.80
13806;DHT22;6974;53.606;9.872;2022-08-11T17:48:28;28.50;94.10
13806;DHT22;6974;53.606;9.872;2022-08-11T17:50:59;28.40;94.70
13806;DHT22;6974;53.606;9.872;2022-08-11T17:53:29;28.40;94.50
13806;DHT22;6974;53.606;9.872;2022-08-11T17:56:15;28.20;94.60